Lauritzen Yacht Harbor
Updated WEATHER every hour; Delta WATER and tide conditions; live TOWER CAM;
The FISHING report with PHOTOGRAPHS; harbor NEWS Items; before you get UNDERWAY ;
OTHER points of interest; WHO are we? WHAT can we provide? WHERE are we?

24 Hour Weather Archive

                   Temp   Wind   Hum   Dew   Wind                            
   Date    Time    Out   Chill   Out   Pt.  Speed    Hi    Dir   Rain   Bar  
 9/13/17  12:00a   68.6   61.3    --     --  14.0   27.0   NNW   0.00  29.892
 9/13/17  12:30a   69.0   62.3    --     --  13.0   24.0   NNW   0.00  29.893
 9/13/17   1:00a   67.9   61.4    --     --  12.0   23.0     N   0.00  29.896
 9/13/17   1:30a   66.0   58.4    --     --  13.0   24.0     N   0.00  29.896
 9/13/17   2:00a   65.9   57.8    --     --  14.0   28.0    NW   0.00  29.896
 9/13/17   2:30a   65.6   57.9    --     --  13.0   25.0    NW   0.00  29.900
 9/13/17   3:00a   65.7   59.1    --     --  11.0   27.0     W   0.00  29.897
 9/13/17   3:30a   65.5   59.3    --     --  10.0   22.0     W   0.00  29.893
 9/13/17   4:00a   65.2   56.9    --     --  14.0   24.0   NNW   0.00  29.894
 9/13/17   4:30a   65.0   58.2    --     --  11.0   20.0     N   0.00  29.904
 9/13/17   5:00a   65.0   58.2    --     --  11.0   24.0    NW   0.00  29.900
 9/13/17   5:30a   65.1   58.3    --     --  11.0   24.0   WSW   0.00  29.900
 9/13/17   6:00a   65.1   57.8    --     --  12.0   24.0     N   0.00  29.901
 9/13/17   6:30a   65.2   59.9    --     --   9.0   20.0     N   0.00  29.895
 9/13/17   7:00a   64.4   61.9    --     --   6.0   15.0   WSW   0.00  29.910
 9/13/17   7:30a   65.3   61.9    --     --   7.0   15.0     N   0.00  29.923
 9/13/17   8:00a   67.1   67.1    --     --   3.0   10.0   SSE   0.00  29.927
 9/13/17   8:30a   67.9   64.0    --     --   8.0   17.0     N   0.00  29.934
 9/13/17   9:00a   70.0   70.0    --     --   4.0   13.0     S   0.00  29.937
 9/13/17   9:30a   72.1   70.3    --     --   6.0   15.0   NNW   0.00  29.939
 9/13/17  10:00a   70.6   67.9    --     --   7.0   14.0     W   0.00  29.938
 9/13/17  10:30a   73.2   70.2    --     --   8.0   18.0     W   0.00  29.939
 9/13/17  11:00a   72.9   68.5    --     --  10.0   17.0   WNW   0.00  29.935
 9/13/17  11:30a   73.9   69.4    --     --  11.0   18.0   WNW   0.00  29.929
 9/13/17  12:00p   75.1   70.6    --     --  12.0   21.0   NNW   0.00  29.929
 9/13/17  12:30p   76.0   71.7    --     --  12.0   23.0   NNW   0.00  29.915
 9/13/17   1:00p   76.5   72.1    --     --  13.0   25.0   NNW   0.00  29.912
 9/13/17   1:30p   76.8   72.4    --     --  13.0   25.0   NNW   0.00  29.903
 9/13/17   2:00p   77.1   72.8    --     --  13.0   26.0   NNW   0.00  29.893
 9/13/17   2:30p   77.3   73.4    --     --  12.0   27.0    NW   0.00  29.887
 9/13/17   3:00p   75.9   71.0    --     --  14.0   28.0   NNW   0.00  29.884
 9/13/17   3:30p   74.9   69.3    --     --  15.0   27.0   NNW   0.00  29.865
 9/13/17   4:00p   76.2   72.0    --     --  12.0   25.0   NNW   0.00  29.863
 9/13/17   4:30p   77.3   73.1    --     --  13.0   24.0   NNW   0.00  29.857
 9/13/17   5:00p   76.0   71.1    --     --  14.0   23.0   NNW   0.00  29.847
 9/13/17   5:30p   75.5   70.8    --     --  13.0   31.0    NW   0.00  29.845
 9/13/17   6:00p   76.0   71.4    --     --  13.0   27.0   WSW   0.00  29.846
 9/13/17   6:30p   73.2   68.5    --     --  11.0   25.0   WSW   0.00  29.855
 9/13/17   7:00p   71.2   66.0    --     --  11.0   24.0    NW   0.00  29.864
 9/13/17   7:30p   68.0   62.0    --     --  11.0   23.0    NW   0.00  29.871
 9/13/17   8:00p   66.8   60.0    --     --  12.0   24.0   NNW   0.00  29.875
 9/13/17   8:30p   66.2   57.6    --     --  15.0   24.0   NNW   0.00  29.871
 9/13/17   9:00p   65.9   57.8    --     --  14.0   28.0   NNW   0.00  29.873
 9/13/17   9:30p   65.5   57.3    --     --  14.0   26.0    NW   0.00  29.875
 9/13/17  10:00p   65.3   56.4    --     --  15.0   33.0   NNW   0.00  29.876
 9/13/17  10:30p   65.2   56.9    --     --  14.0   29.0    NW   0.00  29.878
 9/13/17  11:00p   65.2   59.9    --     --   9.0   20.0   WSW   0.00  29.881
 9/13/17  11:30p   65.1   61.7    --     --   7.0   15.0   WSW   0.00  29.881
 9/13/17  12:00p   64.7   62.2    --     --   6.0   15.0   WSW   0.00  29.881
 9/14/17  12:00a   64.7   62.2    --     --   6.0   15.0   WSW   0.00  29.881
 9/14/17  12:30a   64.5   61.0    --     --   7.0   18.0   WSW   0.00  29.883
 9/14/17   1:00a   64.2   61.7    --     --   6.0   14.0   WSW   0.00  29.889
 9/14/17   1:30a   64.2   61.7    --     --   6.0   15.0   WSW   0.00  29.890
 9/14/17   2:00a   63.9   62.4    --     --   5.0   12.0   WSW   0.00  29.887
 9/14/17   2:30a   63.5   63.5    --     --   4.0   10.0   WSW   0.00  29.890
 9/14/17   3:00a   63.2   63.2    --     --   4.0   10.0    SW   0.00  29.893
 9/14/17   3:30a   63.6   63.6    --     --   4.0   12.0   WSW   0.00  29.885
 9/14/17   4:00a   63.9   63.9    --     --   4.0   10.0   WSW   0.00  29.897
 9/14/17   4:30a   64.1   62.6    --     --   5.0   13.0     W   0.00  29.902
 9/14/17   5:00a   64.1   61.6    --     --   6.0   12.0     W   0.00  29.908
 9/14/17   5:30a   63.9   62.4    --     --   5.0   12.0   WSW   0.00  29.914
 9/14/17   6:00a   63.3   61.8    --     --   5.0   12.0    SW   0.00  29.919
 9/14/17   6:30a   62.6   60.0    --     --   6.0   12.0    SW   0.00  29.927
 9/14/17   7:00a   62.1   60.5    --     --   5.0    9.0    SW   0.00  29.934
 9/14/17   7:30a   63.2   63.2    --     --   3.0    8.0    SW   0.00  29.943
 9/14/17   8:00a   66.0   66.0    --     --   2.0    8.0   WSW   0.00  29.942
 9/14/17   8:30a   67.2   67.2    --     --   4.0   12.0   WSW   0.00  29.950
 9/14/17   9:00a   65.4   62.0    --     --   7.0   13.0     N   0.00  29.960
 9/14/17   9:30a   66.9   64.7    --     --   6.0   12.0     N   0.00  29.964
 9/14/17  10:00a   70.3   69.1    --     --   5.0   13.0   WSW   0.00  29.969


Send questions or comments to:
Some of the material in this website is copyrighted © by Lauritzen Yacht Harbor and may not be used by others without our specific permission.
All rights are reserved. iPhone friendly. Viewed best with Mozilla Firefox